Time;durP1;ratioP1;P1;durP2;ratioP2;P2;SDS_P1;SDS_P2;PMS_P1;PMS_P2;Temp;Humidity;BMP_temperature;BMP_pressure;BME280_temperature;BME280_humidity;BME280_pressure;Samples;Min_cycle;Max_cycle;Signal;HPM_P1;HPM_P2
2023/09/17 00:01:55;;;;;;;0.00;0.00;;;21.70;94.20;;;;;;4944322;29;20039;-81
2023/09/17 00:04:21;;;;;;;0.00;0.00;;;21.70;94.10;;;;;;4944900;29;20028;-80
2023/09/17 00:06:47;;;;;;;0.00;0.00;;;21.80;94.20;;;;;;4948826;28;20065;-80
2023/09/17 00:09:13;;;;;;;0.00;0.00;;;21.70;94.20;;;;;;4961040;28;20031;-82
2023/09/17 00:11:38;;;;;;;0.00;0.00;;;21.60;94.50;;;;;;4951685;28;20159;-83
2023/09/17 00:14:04;;;;;;;0.00;0.00;;;21.50;94.80;;;;;;4946485;29;20118;-82
2023/09/17 00:16:31;;;;;;;0.00;0.00;;;21.50;94.90;;;;;;4949905;28;20042;-81
2023/09/17 00:19:00;;;;;;;0.00;0.00;;;21.50;94.80;;;;;;4946904;28;20851;-81
2023/09/17 00:21:26;;;;;;;0.00;0.00;;;21.40;94.90;;;;;;4947291;29;20862;-81
2023/09/17 00:23:52;;;;;;;0.00;0.00;;;21.50;94.90;;;;;;4953311;28;20031;-81
2023/09/17 00:26:17;;;;;;;0.33;0.33;;;21.40;95.10;;;;;;4946447;28;20035;-82
2023/09/17 00:28:43;;;;;;;0.10;0.10;;;21.50;95.00;;;;;;4946942;28;20035;-83
2023/09/17 00:31:08;;;;;;;0.00;0.00;;;21.50;94.80;;;;;;4944194;29;20066;-84
2023/09/17 00:33:34;;;;;;;0.00;0.00;;;21.50;94.90;;;;;;4945156;29;20075;-83
2023/09/17 00:36:00;;;;;;;0.00;0.00;;;21.60;94.80;;;;;;4939177;29;20035;-83
2023/09/17 00:38:26;;;;;;;0.00;0.00;;;21.50;95.00;;;;;;4943038;28;20035;-81
2023/09/17 00:40:51;;;;;;;0.00;0.00;;;21.60;94.90;;;;;;4940066;29;20058;-82
2023/09/17 00:43:18;;;;;;;0.00;0.00;;;21.60;94.90;;;;;;4944130;28;20035;-81
2023/09/17 00:45:44;;;;;;;0.00;0.00;;;21.60;95.00;;;;;;4940070;29;20113;-81
2023/09/17 00:48:12;;;;;;;0.00;0.00;;;21.50;95.00;;;;;;4937875;29;20032;-80
2023/09/17 00:50:39;;;;;;;0.00;0.00;;;21.40;95.10;;;;;;4940975;29;20873;-82
2023/09/17 00:53:05;;;;;;;0.00;0.00;;;21.40;95.20;;;;;;4948569;29;20035;-81
2023/09/17 00:55:31;;;;;;;0.00;0.00;;;21.30;95.50;;;;;;4942537;29;20027;-81
2023/09/17 00:57:58;;;;;;;0.00;0.00;;;21.30;95.50;;;;;;4941727;29;20031;-82
2023/09/17 01:00:24;;;;;;;0.00;0.00;;;21.30;95.50;;;;;;4944228;29;20091;-82
2023/09/17 01:02:51;;;;;;;0.00;0.00;;;21.30;95.70;;;;;;4942233;29;20087;-82
2023/09/17 01:05:17;;;;;;;0.15;0.15;;;21.30;95.80;;;;;;4948820;29;20059;-83
2023/09/17 01:07:44;;;;;;;0.00;0.00;;;21.30;95.80;;;;;;4950141;28;20027;-83
2023/09/17 01:10:11;;;;;;;0.00;0.00;;;21.20;95.80;;;;;;4964553;28;20073;-83
2023/09/17 01:12:38;;;;;;;;;;;21.20;96.10;;;;;;4961135;28;20059;-83
2023/09/17 01:15:06;;;;;;;0.00;0.00;;;21.10;96.30;;;;;;4945588;28;20021;-84
2023/09/17 01:17:32;;;;;;;0.00;0.00;;;21.10;96.50;;;;;;4948048;28;20051;-82
2023/09/17 01:19:59;;;;;;;0.00;0.00;;;21.10;96.50;;;;;;4944602;28;20062;-80
2023/09/17 01:22:44;;;;;;;0.00;0.00;;;21.00;96.70;;;;;;4947759;28;20030;-80
2023/09/17 01:25:35;;;;;;;0.00;0.00;;;21.00;97.00;;;;;;4963388;28;20034;-81
2023/09/17 01:28:02;;;;;;;0.00;0.00;;;21.00;97.00;;;;;;4944606;28;20058;-80
2023/09/17 01:30:28;;;;;;;0.00;0.00;;;20.90;97.30;;;;;;4963430;28;20140;-80
2023/09/17 01:32:53;;;;;;;0.00;0.00;;;20.80;97.60;;;;;;4940825;28;20036;-80
2023/09/17 01:35:20;;;;;;;0.00;0.00;;;20.80;97.90;;;;;;4944532;28;20118;-80
2023/09/17 01:37:47;;;;;;;;;;;20.70;98.10;;;;;;4947740;28;20026;-81
2023/09/17 01:40:13;;;;;;;0.00;0.00;;;20.60;98.50;;;;;;4944060;28;20378;-81
2023/09/17 01:42:43;;;;;;;1.23;1.15;;;20.70;98.50;;;;;;4940138;29;20035;-81
2023/09/17 01:45:13;;;;;;;0.00;0.00;;;20.70;98.50;;;;;;4948083;29;20035;-81
2023/09/17 01:47:44;;;;;;;0.00;0.00;;;20.70;98.40;;;;;;4943482;29;20404;-81
2023/09/17 01:50:15;;;;;;;0.00;0.00;;;20.80;98.40;;;;;;4948111;29;20026;-81
2023/09/17 01:52:43;;;;;;;0.10;0.10;;;21.00;97.90;;;;;;4934703;28;20408;-82
2023/09/17 01:55:09;;;;;;;0.00;0.00;;;21.30;97.50;;;;;;4944614;28;20038;-81
2023/09/17 01:57:35;;;;;;;0.10;0.10;;;21.40;97.00;;;;;;4947676;28;20118;-81
2023/09/17 02:00:14;;;;;;;0.00;0.00;;;21.30;97.20;;;;;;4956402;28;20113;-81
2023/09/17 02:02:46;;;;;;;0.00;0.00;;;21.20;97.20;;;;;;4942755;28;20082;-81
2023/09/17 02:05:21;;;;;;;1.55;1.45;;;21.30;97.20;;;;;;4948102;29;20066;-82
2023/09/17 02:07:47;;;;;;;0.00;0.00;;;21.20;97.20;;;;;;4946461;28;20034;-82
2023/09/17 02:10:13;;;;;;;2.72;1.85;;;21.20;97.30;;;;;;4947990;29;20023;-82
2023/09/17 02:12:38;;;;;;;0.00;0.00;;;21.00;97.70;;;;;;4940559;29;20206;-82
2023/09/17 02:15:05;;;;;;;0.00;0.00;;;21.00;97.90;;;;;;4950022;28;20278;-82
2023/09/17 02:17:30;;;;;;;0.00;0.00;;;21.00;98.10;;;;;;4944508;29;20052;-81
2023/09/17 02:19:56;;;;;;;0.00;0.00;;;20.90;98.10;;;;;;4943592;29;20132;-82
2023/09/17 02:22:22;;;;;;;0.00;0.00;;;21.20;97.80;;;;;;4963513;28;20514;-81
2023/09/17 02:24:48;;;;;;;0.00;0.00;;;21.10;97.60;;;;;;4948117;28;20082;-84
2023/09/17 02:27:14;;;;;;;0.00;0.00;;;21.10;97.60;;;;;;4948218;29;20694;-84
2023/09/17 02:29:40;;;;;;;0.00;0.00;;;21.10;97.70;;;;;;4946520;28;20019;-84
2023/09/17 02:32:06;;;;;;;0.10;0.10;;;21.00;97.80;;;;;;4948158;29;20037;-83
2023/09/17 02:34:32;;;;;;;0.00;0.00;;;21.10;97.70;;;;;;4940713;28;20043;-83
2023/09/17 02:36:57;;;;;;;0.00;0.00;;;21.00;97.70;;;;;;4947405;28;20023;-84
2023/09/17 02:39:23;;;;;;;0.10;0.10;;;21.20;97.60;;;;;;4949196;29;20104;-82
2023/09/17 02:41:49;;;;;;;0.00;0.00;;;21.20;97.60;;;;;;4947653;28;20023;-82
2023/09/17 02:44:14;;;;;;;0.00;0.00;;;21.10;97.70;;;;;;4947640;28;20053;-81
2023/09/17 02:46:40;;;;;;;3.03;2.13;;;21.10;97.80;;;;;;4941804;28;20089;-82
2023/09/17 02:49:06;;;;;;;0.03;0.03;;;21.20;97.70;;;;;;4945845;29;20027;-81
2023/09/17 02:51:32;;;;;;;0.00;0.00;;;21.00;97.80;;;;;;4947308;28;20031;-82
2023/09/17 02:53:58;;;;;;;8.83;1.40;;;21.10;97.80;;;;;;4941258;29;20577;-83
2023/09/17 02:56:25;;;;;;;0.00;0.00;;;21.10;97.70;;;;;;4946677;29;20337;-81
2023/09/17 02:58:50;;;;;;;0.00;0.00;;;21.00;98.20;;;;;;4945186;28;20146;-83
2023/09/17 03:01:18;;;;;;;0.00;0.00;;;21.00;98.30;;;;;;4946032;29;20032;-83
2023/09/17 03:03:50;;;;;;;2.28;1.23;;;21.00;98.20;;;;;;4957416;28;20031;-82
2023/09/17 03:06:16;;;;;;;0.00;0.00;;;20.90;98.50;;;;;;4942391;28;20031;-82
2023/09/17 03:08:43;;;;;;;0.00;0.00;;;20.90;98.50;;;;;;4949940;28;20082;-83
2023/09/17 03:11:13;;;;;;;0.00;0.00;;;21.00;98.30;;;;;;4948085;28;20110;-81
2023/09/17 03:13:46;;;;;;;0.00;0.00;;;20.80;98.50;;;;;;4944165;29;20037;-83
2023/09/17 03:16:15;;;;;;;0.00;0.00;;;21.00;98.10;;;;;;4950636;28;20414;-82
2023/09/17 03:18:42;;;;;;;0.00;0.00;;;20.90;98.30;;;;;;4948050;29;20753;-83
2023/09/17 03:21:09;;;;;;;0.00;0.00;;;20.90;98.40;;;;;;4962891;28;20118;-82
2023/09/17 03:23:35;;;;;;;;;;;20.90;98.20;;;;;;4954648;28;20436;-83
2023/09/17 03:26:01;;;;;;;0.00;0.00;;;21.00;98.10;;;;;;4946343;28;19902;-82
2023/09/17 03:28:36;;;;;;;0.00;0.00;;;21.00;97.90;;;;;;4950525;28;20124;-83
2023/09/17 03:31:04;;;;;;;0.00;0.00;;;21.00;97.70;;;;;;4949409;29;20034;-83
2023/09/17 03:33:30;;;;;;;0.00;0.00;;;21.10;97.60;;;;;;4949794;29;20130;-82
2023/09/17 03:35:57;;;;;;;0.00;0.00;;;21.00;97.70;;;;;;4946041;29;20110;-81
2023/09/17 03:38:23;;;;;;;0.10;0.05;;;21.00;97.70;;;;;;4946351;29;20058;-81
2023/09/17 03:40:49;;;;;;;0.00;0.00;;;21.10;97.50;;;;;;4949070;28;20779;-83
2023/09/17 03:43:15;;;;;;;0.00;0.00;;;21.10;97.50;;;;;;4946950;29;20027;-83
2023/09/17 03:45:41;;;;;;;0.00;0.00;;;21.10;97.30;;;;;;4945807;28;20035;-82
2023/09/17 03:48:07;;;;;;;0.00;0.00;;;21.20;97.20;;;;;;4937951;29;20031;-82
2023/09/17 03:50:33;;;;;;;0.00;0.00;;;21.20;97.30;;;;;;4951553;28;20517;-83
2023/09/17 03:53:05;;;;;;;0.00;0.00;;;21.10;97.30;;;;;;4945466;28;20126;-84
2023/09/17 03:55:31;;;;;;;0.00;0.00;;;21.10;97.40;;;;;;4944518;28;20138;-81
2023/09/17 03:57:57;;;;;;;0.00;0.00;;;21.00;97.70;;;;;;4935837;29;20035;-83
2023/09/17 04:00:23;;;;;;;0.00;0.00;;;20.90;97.90;;;;;;4937841;28;20027;-81
2023/09/17 04:02:49;;;;;;;0.00;0.00;;;20.90;98.10;;;;;;4934213;28;20031;-81
2023/09/17 04:05:16;;;;;;;0.00;0.00;;;21.00;97.80;;;;;;4942579;28;20099;-82
2023/09/17 04:07:44;;;;;;;0.00;0.00;;;20.90;97.70;;;;;;4941251;28;20035;-82
2023/09/17 04:10:12;;;;;;;0.00;0.00;;;20.90;97.80;;;;;;4938130;28;20032;-80
2023/09/17 04:12:39;;;;;;;0.00;0.00;;;20.90;97.90;;;;;;4941938;29;20114;-84
2023/09/17 04:15:18;;;;;;;0.00;0.00;;;20.90;97.80;;;;;;4934922;29;20058;-82
2023/09/17 04:17:45;;;;;;;0.00;0.00;;;20.80;98.10;;;;;;4933548;29;20028;-82
2023/09/17 04:20:13;;;;;;;;;;;20.80;98.20;;;;;;4936853;29;20047;-83
2023/09/17 04:22:42;;;;;;;0.00;0.00;;;20.90;97.90;;;;;;4943300;28;20691;-82
2023/09/17 04:25:09;;;;;;;0.00;0.00;;;21.00;97.70;;;;;;4943429;28;20027;-81
2023/09/17 04:27:36;;;;;;;0.00;0.00;;;21.00;97.50;;;;;;4940125;28;20594;-82
2023/09/17 04:30:05;;;;;;;0.00;0.00;;;21.00;97.40;;;;;;4943427;28;20039;-83
2023/09/17 04:32:37;;;;;;;0.00;0.00;;;21.00;97.50;;;;;;4952736;28;20230;-83
2023/09/17 04:35:05;;;;;;;0.00;0.00;;;20.90;97.90;;;;;;4944640;29;20039;-82
2023/09/17 04:37:32;;;;;;;0.00;0.00;;;20.90;97.80;;;;;;4963187;28;20059;-81
2023/09/17 04:39:58;;;;;;;0.00;0.00;;;20.90;98.00;;;;;;4940972;29;20042;-84
2023/09/17 04:42:23;;;;;;;0.00;0.00;;;20.70;98.20;;;;;;4947873;28;20027;-81
2023/09/17 04:44:49;;;;;;;0.00;0.00;;;20.60;98.50;;;;;;4943800;29;20027;-82
2023/09/17 04:47:15;;;;;;;0.00;0.00;;;20.70;98.40;;;;;;4940046;29;20051;-83
2023/09/17 04:49:40;;;;;;;0.00;0.00;;;20.70;98.50;;;;;;4949755;28;20032;-82
2023/09/17 04:52:06;;;;;;;0.10;0.10;;;20.80;98.40;;;;;;4943262;29;20065;-82
2023/09/17 04:54:32;;;;;;;0.00;0.00;;;20.80;98.30;;;;;;4940749;28;20035;-81
2023/09/17 04:56:57;;;;;;;0.00;0.00;;;20.70;98.40;;;;;;4947572;29;20020;-80
2023/09/17 04:59:23;;;;;;;0.00;0.00;;;20.70;98.30;;;;;;4939674;29;20035;-82
2023/09/17 05:01:49;;;;;;;0.30;0.17;;;20.70;98.40;;;;;;4942274;29;20628;-81
2023/09/17 05:04:15;;;;;;;0.00;0.00;;;20.70;98.40;;;;;;4950105;28;20158;-81
2023/09/17 05:06:42;;;;;;;0.00;0.00;;;20.60;98.50;;;;;;4962195;28;20035;-81
2023/09/17 05:09:08;;;;;;;0.00;0.00;;;20.70;98.30;;;;;;4964710;28;20745;-82
2023/09/17 05:11:34;;;;;;;0.00;0.00;;;20.80;98.10;;;;;;4960534;28;20031;-85
2023/09/17 05:14:01;;;;;;;0.00;0.00;;;20.80;97.90;;;;;;4947482;29;20046;-85
2023/09/17 05:16:27;;;;;;;0.00;0.00;;;20.80;97.80;;;;;;4962475;28;20051;-84
2023/09/17 05:18:53;;;;;;;0.00;0.00;;;20.80;97.80;;;;;;4953810;28;20023;-83
2023/09/17 05:21:19;;;;;;;0.00;0.00;;;20.80;97.80;;;;;;4943984;29;20093;-84
2023/09/17 05:23:45;;;;;;;0.00;0.00;;;20.90;97.50;;;;;;4949102;29;20153;-83
2023/09/17 05:26:11;;;;;;;0.00;0.00;;;21.00;97.30;;;;;;4943556;29;20046;-76
2023/09/17 05:28:37;;;;;;;0.00;0.00;;;20.90;97.30;;;;;;4947581;28;20031;-81
2023/09/17 05:31:03;;;;;;;0.13;0.13;;;21.00;97.30;;;;;;4948117;28;20505;-79
2023/09/17 05:33:30;;;;;;;0.00;0.00;;;21.00;97.30;;;;;;4959815;28;20042;-79
2023/09/17 05:35:56;;;;;;;0.00;0.00;;;21.10;97.10;;;;;;4941261;29;20031;-77
2023/09/17 05:38:23;;;;;;;0.00;0.00;;;21.10;97.00;;;;;;4944828;29;20030;-78
2023/09/17 05:40:49;;;;;;;0.10;0.10;;;21.10;97.00;;;;;;4943965;28;20032;-79
2023/09/17 05:43:16;;;;;;;0.00;0.00;;;21.00;97.00;;;;;;4962468;28;20038;-82
2023/09/17 05:45:41;;;;;;;0.00;0.00;;;21.00;97.00;;;;;;4946352;28;20039;-80
2023/09/17 05:48:07;;;;;;;0.00;0.00;;;21.10;97.00;;;;;;4948222;29;20042;-81
2023/09/17 05:50:33;;;;;;;0.20;0.20;;;21.20;96.60;;;;;;4947137;28;20031;-80
2023/09/17 05:52:58;;;;;;;0.00;0.00;;;21.10;96.70;;;;;;4944045;29;20039;-79
2023/09/17 05:55:24;;;;;;;0.00;0.00;;;21.30;96.50;;;;;;4945497;28;20253;-80
2023/09/17 05:57:50;;;;;;;0.00;0.00;;;21.20;96.60;;;;;;4948421;28;20027;-79
2023/09/17 06:00:17;;;;;;;0.00;0.00;;;21.20;96.60;;;;;;4948755;29;20034;-80
2023/09/17 06:02:43;;;;;;;0.20;0.20;;;21.20;96.50;;;;;;4947260;29;20038;-78
2023/09/17 06:05:09;;;;;;;0.00;0.00;;;21.30;96.40;;;;;;4945342;29;20034;-81
2023/09/17 06:07:34;;;;;;;0.00;0.00;;;21.30;96.30;;;;;;4960416;28;20046;-81
2023/09/17 06:10:00;;;;;;;0.00;0.00;;;21.40;96.10;;;;;;4946929;29;20038;-84
2023/09/17 06:12:26;;;;;;;0.00;0.00;;;21.30;96.40;;;;;;4946237;28;20039;-83
2023/09/17 06:14:52;;;;;;;0.00;0.00;;;21.50;96.00;;;;;;4947753;29;20290;-81
2023/09/17 06:17:17;;;;;;;0.00;0.00;;;21.50;95.90;;;;;;4947445;29;20035;-81
2023/09/17 06:19:43;;;;;;;0.00;0.00;;;21.60;95.70;;;;;;4961937;28;20036;-79
2023/09/17 06:22:11;;;;;;;0.10;0.10;;;21.70;95.60;;;;;;4947797;29;20542;-78
2023/09/17 06:24:36;;;;;;;0.00;0.00;;;21.70;95.40;;;;;;4947865;28;20194;-78
2023/09/17 06:27:03;;;;;;;0.00;0.00;;;21.90;95.20;;;;;;4947221;28;20114;-78
2023/09/17 06:29:29;;;;;;;11.98;6.13;;;22.10;94.80;;;;;;4948902;28;20122;-77
2023/09/17 06:31:55;;;;;;;0.00;0.00;;;22.10;94.60;;;;;;4947884;29;20039;-77
2023/09/17 06:34:21;;;;;;;0.10;0.10;;;22.10;94.60;;;;;;4942294;29;20039;-78
2023/09/17 06:36:47;;;;;;;0.00;0.00;;;22.10;94.60;;;;;;4948627;29;20027;-78
2023/09/17 06:39:13;;;;;;;0.00;0.00;;;22.00;94.70;;;;;;4948427;29;20330;-78
2023/09/17 06:41:39;;;;;;;0.00;0.00;;;22.30;94.30;;;;;;4947942;28;20781;-78
2023/09/17 06:44:05;;;;;;;0.00;0.00;;;22.60;93.90;;;;;;4967071;28;20020;-79
2023/09/17 06:46:31;;;;;;;0.00;0.00;;;22.80;93.30;;;;;;4951173;29;20049;-80
2023/09/17 06:48:57;;;;;;;0.00;0.00;;;23.20;92.60;;;;;;4949517;29;20027;-80
2023/09/17 06:51:23;;;;;;;0.00;0.00;;;23.80;91.90;;;;;;4940806;28;20507;-85
2023/09/17 06:53:48;;;;;;;0.00;0.00;;;23.90;91.10;;;;;;4965908;28;20031;-84
2023/09/17 06:56:15;;;;;;;0.00;0.00;;;23.40;91.60;;;;;;4940233;29;20494;-83
2023/09/17 06:58:40;;;;;;;;;;;23.10;92.10;;;;;;4941108;28;20039;-83
2023/09/17 07:01:07;;;;;;;;;;;23.10;92.30;;;;;;4951872;28;19911;-83
2023/09/17 07:03:32;;;;;;;0.00;0.00;;;23.10;92.10;;;;;;4949064;28;20030;-83
2023/09/17 07:05:59;;;;;;;0.00;0.00;;;23.20;92.00;;;;;;4966544;28;20059;-83
2023/09/17 07:08:25;;;;;;;0.00;0.00;;;23.40;91.90;;;;;;4951331;28;20139;-83
2023/09/17 07:10:51;;;;;;;0.00;0.00;;;23.70;91.20;;;;;;4952064;29;20118;-84
2023/09/17 07:13:17;;;;;;;0.45;0.45;;;24.10;90.60;;;;;;4951515;29;20633;-83
2023/09/17 07:15:45;;;;;;;0.00;0.00;;;25.20;87.70;;;;;;4947808;29;20110;-82
2023/09/17 07:18:12;;;;;;;0.00;0.00;;;24.70;89.50;;;;;;4947464;28;20078;-85
2023/09/17 07:20:38;;;;;;;0.00;0.00;;;26.70;85.00;;;;;;4950862;29;20047;-83
2023/09/17 07:23:04;;;;;;;0.00;0.00;;;26.10;83.80;;;;;;4941329;28;20620;-84
2023/09/17 07:25:31;;;;;;;0.47;0.43;;;26.40;81.30;;;;;;4952047;29;20035;-84
2023/09/17 07:28:04;;;;;;;0.00;0.00;;;26.30;83.00;;;;;;4956113;28;20054;-83
2023/09/17 07:30:36;;;;;;;0.00;0.00;;;27.00;80.10;;;;;;4956185;28;20486;-83
2023/09/17 07:33:05;;;;;;;0.00;0.00;;;27.70;78.80;;;;;;4957807;28;20042;-84
2023/09/17 07:35:35;;;;;;;0.00;0.00;;;28.00;75.20;;;;;;4949824;29;20450;-84
2023/09/17 07:38:00;;;;;;;0.00;0.00;;;28.50;75.20;;;;;;4967831;28;20027;-83
2023/09/17 07:40:26;;;;;;;0.00;0.00;;;29.00;73.10;;;;;;4951299;29;20471;-84
2023/09/17 07:42:52;;;;;;;0.00;0.00;;;28.70;73.80;;;;;;4951868;29;20038;-84
2023/09/17 07:45:18;;;;;;;0.00;0.00;;;29.70;72.10;;;;;;4951128;29;20162;-84
2023/09/17 07:47:45;;;;;;;0.00;0.00;;;29.00;71.90;;;;;;4951687;29;20437;-84
2023/09/17 07:50:11;;;;;;;0.00;0.00;;;28.60;72.50;;;;;;4965845;28;20035;-84
2023/09/17 07:52:37;;;;;;;0.00;0.00;;;28.30;72.90;;;;;;4950382;28;20534;-84
2023/09/17 07:55:04;;;;;;;0.00;0.00;;;29.80;69.90;;;;;;4950666;29;20031;-84
2023/09/17 07:57:31;;;;;;;0.10;0.10;;;30.00;69.20;;;;;;4951218;29;20133;-84
2023/09/17 07:59:56;;;;;;;0.00;0.00;;;30.80;67.40;;;;;;4951442;29;20019;-85
2023/09/17 08:02:22;;;;;;;0.00;0.00;;;30.90;66.60;;;;;;4951557;29;20774;-84
2023/09/17 08:04:48;;;;;;;0.00;0.00;;;30.10;67.50;;;;;;4951344;29;20019;-85
2023/09/17 08:07:13;;;;;;;0.00;0.00;;;29.50;68.60;;;;;;4947451;28;20043;-84
2023/09/17 08:09:39;;;;;;;;;;;30.20;67.20;;;;;;4950716;28;20114;-85
2023/09/17 08:12:05;;;;;;;0.00;0.00;;;30.90;64.30;;;;;;4951299;28;20362;-85
2023/09/17 08:14:33;;;;;;;;;;;30.70;66.30;;;;;;4949266;29;20486;-85
2023/09/17 08:16:58;;;;;;;0.00;0.00;;;31.90;63.50;;;;;;4953721;28;20449;-84
2023/09/17 08:19:24;;;;;;;0.00;0.00;;;30.70;63.50;;;;;;4948513;29;20074;-85
2023/09/17 08:21:50;;;;;;;;;;;29.90;67.70;;;;;;4950726;29;20070;-85
2023/09/17 08:24:17;;;;;;;0.00;0.00;;;29.80;65.30;;;;;;4948238;29;20438;-88
2023/09/17 08:26:43;;;;;;;0.00;0.00;;;28.90;70.10;;;;;;4942957;29;20015;-85
2023/09/17 08:29:09;;;;;;;0.00;0.00;;;29.80;68.10;;;;;;4955864;28;20035;-84
2023/09/17 08:31:35;;;;;;;0.00;0.00;;;30.70;66.00;;;;;;4948271;29;20066;-87
2023/09/17 08:34:03;;;;;;;0.00;0.00;;;30.30;65.00;;;;;;4944691;28;20142;-89
2023/09/17 08:36:29;;;;;;;0.00;0.00;;;30.40;63.90;;;;;;4946788;28;20033;-90
2023/09/17 08:38:54;;;;;;;0.00;0.00;;;31.20;64.80;;;;;;4951242;29;20499;-86
2023/09/17 08:41:23;;;;;;;0.60;0.60;;;32.10;60.90;;;;;;4967437;28;20031;-90
2023/09/17 08:43:53;;;;;;;0.00;0.00;;;31.90;60.70;;;;;;4954109;28;20348;-88
2023/09/17 08:46:22;;;;;;;0.10;0.10;;;32.40;59.60;;;;;;4937233;28;20027;-87
2023/09/17 08:48:48;;;;;;;0.00;0.00;;;33.20;57.80;;;;;;4941803;28;20039;-85
2023/09/17 08:51:18;;;;;;;0.00;0.00;;;32.20;59.00;;;;;;4947807;28;20562;-86
2023/09/17 08:54:09;;;;;;;0.00;0.00;;;32.50;59.00;;;;;;4962538;28;21449;-87
2023/09/17 08:56:39;;;;;;;17.45;9.75;;;33.20;57.30;;;;;;4939563;28;20443;-84
2023/09/17 08:59:17;;;;;;;0.00;0.00;;;33.80;56.60;;;;;;4948197;29;20094;-83
2023/09/17 09:01:46;;;;;;;0.00;0.00;;;34.70;55.30;;;;;;4964553;28;20023;-85
2023/09/17 09:04:14;;;;;;;1.65;1.55;;;33.70;54.50;;;;;;4942954;28;20035;-84
2023/09/17 09:06:43;;;;;;;0.00;0.00;;;33.30;55.80;;;;;;4946975;28;20117;-85
2023/09/17 09:09:09;;;;;;;0.00;0.00;;;32.10;58.80;;;;;;4949306;28;20035;-84
2023/09/17 09:11:35;;;;;;;0.00;0.00;;;31.80;58.60;;;;;;4945225;29;20551;-85
2023/09/17 09:14:04;;;;;;;;;;;33.20;57.30;;;;;;4955625;28;20924;-85
2023/09/17 09:16:32;;;;;;;0.00;0.00;;;32.70;56.40;;;;;;4944326;29;19918;-86
2023/09/17 09:18:59;;;;;;;4.22;3.85;;;32.30;57.30;;;;;;4939119;29;20062;-86
2023/09/17 09:21:28;;;;;;;0.00;0.00;;;32.90;56.90;;;;;;4935316;28;20606;-85
2023/09/17 09:23:57;;;;;;;0.00;0.00;;;33.00;56.80;;;;;;4939226;28;20039;-86
2023/09/17 09:26:41;;;;;;;0.00;0.00;;;32.30;55.50;;;;;;4948152;28;20696;-86
2023/09/17 09:29:08;;;;;;;3.53;1.02;;;31.60;58.30;;;;;;4969230;28;20094;-85
2023/09/17 09:31:34;;;;;;;0.00;0.00;;;31.80;57.40;;;;;;4947037;28;20046;-86
2023/09/17 09:34:00;;;;;;;;;;;32.30;56.90;;;;;;4936523;28;20837;-87
2023/09/17 09:36:28;;;;;;;5.47;2.40;;;32.90;56.10;;;;;;4937433;29;19922;-86
2023/09/17 09:38:56;;;;;;;0.00;0.00;;;32.90;55.50;;;;;;4946701;28;20668;-86
2023/09/17 09:41:22;;;;;;;0.00;0.00;;;31.20;57.20;;;;;;4935359;28;20055;-87
2023/09/17 09:43:48;;;;;;;;;;;31.70;57.20;;;;;;4944949;29;20098;-84
2023/09/17 09:46:15;;;;;;;2.45;1.77;;;31.00;57.50;;;;;;4964459;28;19945;-88
2023/09/17 09:48:41;;;;;;;0.00;0.00;;;30.20;60.90;;;;;;4947881;29;20138;-84
2023/09/17 09:51:08;;;;;;;1.55;1.40;;;32.80;56.40;;;;;;4948620;28;20037;-86
2023/09/17 09:53:33;;;;;;;0.00;0.00;;;32.50;56.00;;;;;;4945154;28;20039;-85
2023/09/17 09:56:00;;;;;;;0.00;0.00;;;33.20;55.80;;;;;;4961836;28;20039;-85
2023/09/17 09:58:25;;;;;;;0.00;0.00;;;32.20;56.70;;;;;;4944121;28;20435;-85
2023/09/17 10:00:53;;;;;;;0.00;0.00;;;31.70;56.00;;;;;;4946923;28;20055;-82
2023/09/17 10:03:20;;;;;;;0.00;0.00;;;30.20;59.30;;;;;;4944443;29;20031;-85
2023/09/17 10:05:46;;;;;;;0.00;0.00;;;30.50;59.90;;;;;;4944544;29;20036;-84
2023/09/17 10:08:15;;;;;;;0.00;0.00;;;31.20;59.80;;;;;;4942814;29;20363;-84
2023/09/17 10:10:42;;;;;;;0.00;0.00;;;31.30;59.80;;;;;;4946585;29;20494;-84
2023/09/17 10:13:10;;;;;;;0.00;0.00;;;30.50;60.20;;;;;;4941065;28;20062;-84
2023/09/17 10:15:37;;;;;;;0.00;0.00;;;29.90;60.50;;;;;;4945746;28;20039;-87
2023/09/17 10:18:12;;;;;;;7.22;2.08;;;30.20;61.10;;;;;;4968256;28;20033;-84
2023/09/17 10:20:39;;;;;;;0.00;0.00;;;30.50;61.00;;;;;;4966019;28;20054;-85
2023/09/17 10:23:06;;;;;;;0.00;0.00;;;30.80;60.90;;;;;;4949346;28;20031;-84
2023/09/17 10:25:33;;;;;;;0.00;0.00;;;30.60;60.20;;;;;;4950055;29;20039;-86
2023/09/17 10:28:01;;;;;;;0.00;0.00;;;30.00;61.60;;;;;;4952239;28;20043;-85
2023/09/17 10:30:28;;;;;;;0.00;0.00;;;29.90;60.80;;;;;;4953737;29;20035;-87
2023/09/17 10:32:55;;;;;;;0.00;0.00;;;30.10;61.40;;;;;;4952366;28;20065;-88
2023/09/17 10:35:21;;;;;;;0.00;0.00;;;30.40;60.20;;;;;;4949372;28;20038;-85
2023/09/17 10:37:48;;;;;;;0.00;0.00;;;30.10;62.70;;;;;;4953723;28;20019;-85
2023/09/17 10:40:15;;;;;;;0.35;0.35;;;30.20;61.60;;;;;;4946029;28;20078;-86
2023/09/17 10:42:41;;;;;;;0.00;0.00;;;30.30;60.20;;;;;;4950929;28;20102;-90
2023/09/17 10:45:09;;;;;;;0.00;0.00;;;30.30;62.60;;;;;;4951073;28;20865;-86
2023/09/17 10:47:38;;;;;;;0.00;0.00;;;30.20;62.00;;;;;;4940832;28;20691;-85
2023/09/17 10:50:04;;;;;;;0.00;0.00;;;30.30;62.30;;;;;;4967877;28;20042;-86
2023/09/17 10:52:31;;;;;;;0.00;0.00;;;30.00;62.30;;;;;;4950013;28;20044;-86
2023/09/17 10:54:57;;;;;;;0.00;0.00;;;30.10;61.30;;;;;;4964672;28;20039;-85
2023/09/17 10:57:36;;;;;;;0.00;0.00;;;29.70;62.30;;;;;;4950606;28;20470;-85
2023/09/17 11:00:04;;;;;;;0.00;0.00;;;29.80;62.50;;;;;;4968895;28;20091;-84
2023/09/17 11:02:32;;;;;;;2.38;1.85;;;30.00;62.40;;;;;;4952054;29;20062;-86
2023/09/17 11:04:59;;;;;;;0.00;0.00;;;29.90;61.30;;;;;;4951270;28;20039;-85
2023/09/17 11:07:26;;;;;;;0.00;0.00;;;30.20;62.40;;;;;;4948849;28;20031;-85
2023/09/17 11:09:51;;;;;;;0.00;0.00;;;30.10;60.70;;;;;;4949271;28;20117;-85
2023/09/17 11:12:22;;;;;;;0.00;0.00;;;29.90;61.50;;;;;;4952060;28;20039;-87
2023/09/17 11:14:48;;;;;;;0.00;0.00;;;29.50;61.80;;;;;;4947360;28;20146;-87
2023/09/17 11:17:18;;;;;;;0.00;0.00;;;29.60;61.40;;;;;;4951327;29;20126;-86
2023/09/17 11:19:44;;;;;;;0.00;0.00;;;29.70;62.20;;;;;;4952838;28;20034;-87
2023/09/17 11:22:12;;;;;;;0.00;0.00;;;29.70;61.30;;;;;;4951177;28;20043;-86
2023/09/17 11:24:39;;;;;;;1.35;1.25;;;30.10;61.90;;;;;;4950887;29;20031;-86
2023/09/17 11:27:05;;;;;;;0.00;0.00;;;30.40;62.10;;;;;;4952794;28;20035;-85
2023/09/17 11:29:38;;;;;;;;;;;30.40;60.80;;;;;;4964672;28;20090;-86
2023/09/17 11:32:04;;;;;;;0.00;0.00;;;30.40;59.60;;;;;;4943898;28;20740;-86
2023/09/17 11:34:31;;;;;;;0.00;0.00;;;30.40;60.00;;;;;;4945536;28;20043;-86
2023/09/17 11:36:57;;;;;;;0.00;0.00;;;30.80;60.80;;;;;;4947005;28;20044;-85
2023/09/17 11:39:24;;;;;;;0.00;0.00;;;31.00;59.80;;;;;;4950285;28;20043;-86
2023/09/17 11:41:55;;;;;;;;;;;31.10;59.00;;;;;;4966155;28;20031;-87
2023/09/17 11:44:22;;;;;;;0.00;0.00;;;30.80;59.00;;;;;;4948622;28;19914;-89
2023/09/17 11:46:48;;;;;;;0.00;0.00;;;30.20;59.40;;;;;;4950410;29;20038;-89
2023/09/17 11:49:14;;;;;;;;;;;30.50;58.90;;;;;;4945771;29;20054;-90
2023/09/17 11:51:45;;;;;;;0.00;0.00;;;30.00;58.70;;;;;;4965049;28;19941;-88
2023/09/17 11:54:15;;;;;;;0.00;0.00;;;30.30;59.00;;;;;;4951839;29;20035;-89
2023/09/17 11:56:55;;;;;;;0.00;0.00;;;30.40;59.40;;;;;;4942192;28;20039;-89
2023/09/17 11:59:22;;;;;;;0.00;0.00;;;30.30;58.30;;;;;;4949737;28;20054;-89
2023/09/17 12:01:56;;;;;;;0.00;0.00;;;30.20;58.30;;;;;;4948509;29;20410;-89
2023/09/17 12:04:29;;;;;;;0.00;0.00;;;30.40;57.90;;;;;;4964704;28;20040;-89
2023/09/17 12:06:58;;;;;;;0.00;0.00;;;30.70;58.40;;;;;;4949663;28;20030;-88
2023/09/17 12:11:59;;;;;;;0.00;0.00;;;30.10;58.90;;;;;;4948224;28;20839;-88
2023/09/17 12:14:25;;;;;;;0.00;0.00;;;30.20;58.70;;;;;;4960860;28;20431;-87
2023/09/17 12:16:52;;;;;;;0.00;0.00;;;30.10;59.70;;;;;;4962262;28;20141;-87
2023/09/17 12:19:19;;;;;;;0.17;0.17;;;30.10;59.80;;;;;;4962234;28;20027;-88
2023/09/17 12:21:51;;;;;;;0.00;0.00;;;29.90;60.40;;;;;;4948773;29;20053;-87
2023/09/17 12:24:34;;;;;;;0.00;0.00;;;29.70;60.90;;;;;;4945681;28;20034;-88
2023/09/17 12:27:24;;;;;;;0.00;0.00;;;30.00;60.60;;;;;;4966223;28;20039;-91
2023/09/17 12:29:54;;;;;;;0.00;0.00;;;30.00;61.30;;;;;;4948768;28;20047;-91
2023/09/17 12:32:24;;;;;;;4.22;3.85;;;29.90;59.70;;;;;;4943040;28;20027;-92
2023/09/17 12:34:52;;;;;;;0.00;0.00;;;30.20;59.80;;;;;;4960970;28;20031;-94
2023/09/17 12:37:18;;;;;;;0.00;0.00;;;30.00;60.00;;;;;;4949916;28;20199;-87
2023/09/17 12:39:44;;;;;;;;;;;30.00;60.00;;;;;;4950149;28;20031;-91
2023/09/17 12:42:13;;;;;;;0.00;0.00;;;30.00;59.90;;;;;;4961034;28;19922;-96
2023/09/17 12:44:40;;;;;;;0.00;0.00;;;30.10;61.70;;;;;;4958718;28;20031;-95
2023/09/17 12:47:06;;;;;;;;;;;30.40;60.10;;;;;;4969764;28;20039;-88
2023/09/17 12:49:32;;;;;;;0.00;0.00;;;30.40;59.80;;;;;;4948710;28;20353;-87
2023/09/17 12:51:59;;;;;;;0.00;0.00;;;30.40;60.20;;;;;;4948373;28;20116;-88
2023/09/17 12:54:25;;;;;;;0.00;0.00;;;30.60;59.80;;;;;;4944061;28;20036;-86